sensor_id;sensor_type;location;lat;lon;timestamp;P1;durP1;ratioP1;P2;durP2;ratioP2
64244;SDS011;50584;29.058;-110.966;2022-09-12T00:01:20;1.40;;;1.30;;
64244;SDS011;50584;29.058;-110.966;2022-09-12T00:03:46;1.60;;;1.20;;
64244;SDS011;50584;29.058;-110.966;2022-09-12T00:06:16;7.47;;;1.20;;
64244;SDS011;50584;29.058;-110.966;2022-09-12T00:08:42;1.20;;;1.10;;
64244;SDS011;50584;29.058;-110.966;2022-09-12T00:11:09;3.33;;;1.10;;
64244;SDS011;50584;29.058;-110.966;2022-09-12T00:13:35;1.90;;;1.27;;
64244;SDS011;50584;29.058;-110.966;2022-09-12T00:16:02;2.83;;;1.30;;
64244;SDS011;50584;29.058;-110.966;2022-09-12T00:18:27;1.20;;;1.10;;
64244;SDS011;50584;29.058;-110.966;2022-09-12T00:20:53;3.17;;;1.83;;
64244;SDS011;50584;29.058;-110.966;2022-09-12T00:23:19;4.32;;;1.50;;
64244;SDS011;50584;29.058;-110.966;2022-09-12T00:25:46;3.47;;;1.40;;
64244;SDS011;50584;29.058;-110.966;2022-09-12T00:28:12;2.72;;;1.40;;
64244;SDS011;50584;29.058;-110.966;2022-09-12T00:30:39;2.90;;;1.30;;
64244;SDS011;50584;29.058;-110.966;2022-09-12T00:33:05;1.85;;;1.20;;
64244;SDS011;50584;29.058;-110.966;2022-09-12T00:35:31;4.20;;;1.00;;
64244;SDS011;50584;29.058;-110.966;2022-09-12T00:37:56;2.00;;;1.33;;
64244;SDS011;50584;29.058;-110.966;2022-09-12T00:40:22;2.72;;;1.40;;
64244;SDS011;50584;29.058;-110.966;2022-09-12T00:42:48;2.92;;;1.15;;
64244;SDS011;50584;29.058;-110.966;2022-09-12T00:45:23;2.05;;;0.90;;
64244;SDS011;50584;29.058;-110.966;2022-09-12T00:47:51;0.80;;;0.80;;
64244;SDS011;50584;29.058;-110.966;2022-09-12T00:50:18;0.80;;;0.80;;
64244;SDS011;50584;29.058;-110.966;2022-09-12T00:52:54;0.80;;;0.80;;
64244;SDS011;50584;29.058;-110.966;2022-09-12T01:00:26;4.78;;;1.30;;
64244;SDS011;50584;29.058;-110.966;2022-09-12T01:02:54;6.05;;;1.17;;
64244;SDS011;50584;29.058;-110.966;2022-09-12T01:05:21;14.93;;;2.08;;
64244;SDS011;50584;29.058;-110.966;2022-09-12T01:07:47;3.08;;;0.95;;
64244;SDS011;50584;29.058;-110.966;2022-09-12T01:10:14;10.35;;;1.55;;
64244;SDS011;50584;29.058;-110.966;2022-09-12T01:12:40;10.43;;;2.05;;
64244;SDS011;50584;29.058;-110.966;2022-09-12T01:15:07;7.57;;;1.60;;
64244;SDS011;50584;29.058;-110.966;2022-09-12T01:17:40;6.13;;;1.23;;
64244;SDS011;50584;29.058;-110.966;2022-09-12T01:32:55;6.07;;;1.50;;
64244;SDS011;50584;29.058;-110.966;2022-09-12T01:37:53;9.25;;;1.50;;
64244;SDS011;50584;29.058;-110.966;2022-09-12T01:42:51;2.00;;;1.30;;
64244;SDS011;50584;29.058;-110.966;2022-09-12T01:50:30;1.95;;;1.40;;
64244;SDS011;50584;29.058;-110.966;2022-09-12T01:53:03;2.22;;;1.20;;
64244;SDS011;50584;29.058;-110.966;2022-09-12T01:55:37;3.00;;;1.02;;
64244;SDS011;50584;29.058;-110.966;2022-09-12T02:00:32;2.83;;;1.30;;
64244;SDS011;50584;29.058;-110.966;2022-09-12T02:03:04;2.55;;;1.30;;
64244;SDS011;50584;29.058;-110.966;2022-09-12T02:05:56;5.97;;;1.20;;
64244;SDS011;50584;29.058;-110.966;2022-09-12T02:08:42;8.60;;;1.50;;
64244;SDS011;50584;29.058;-110.966;2022-09-12T02:11:07;1.85;;;1.00;;
64244;SDS011;50584;29.058;-110.966;2022-09-12T02:16:15;2.30;;;1.33;;
64244;SDS011;50584;29.058;-110.966;2022-09-12T02:18:44;6.18;;;1.40;;
64244;SDS011;50584;29.058;-110.966;2022-09-12T02:21:10;5.47;;;2.20;;
64244;SDS011;50584;29.058;-110.966;2022-09-12T02:23:38;9.18;;;1.90;;
64244;SDS011;50584;29.058;-110.966;2022-09-12T02:26:07;3.70;;;1.40;;
64244;SDS011;50584;29.058;-110.966;2022-09-12T02:28:35;5.80;;;1.88;;
64244;SDS011;50584;29.058;-110.966;2022-09-12T02:31:11;6.13;;;2.40;;
64244;SDS011;50584;29.058;-110.966;2022-09-12T02:39:07;3.83;;;1.70;;
64244;SDS011;50584;29.058;-110.966;2022-09-12T02:41:33;4.13;;;1.50;;
64244;SDS011;50584;29.058;-110.966;2022-09-12T02:43:59;5.43;;;1.70;;
64244;SDS011;50584;29.058;-110.966;2022-09-12T02:46:47;6.60;;;1.50;;
64244;SDS011;50584;29.058;-110.966;2022-09-12T02:49:12;5.60;;;1.88;;
64244;SDS011;50584;29.058;-110.966;2022-09-12T02:51:38;3.28;;;1.60;;
64244;SDS011;50584;29.058;-110.966;2022-09-12T02:54:05;2.80;;;1.38;;
64244;SDS011;50584;29.058;-110.966;2022-09-12T02:56:31;2.90;;;1.77;;
64244;SDS011;50584;29.058;-110.966;2022-09-12T02:59:00;6.15;;;1.30;;
64244;SDS011;50584;29.058;-110.966;2022-09-12T03:09:30;6.93;;;2.33;;
64244;SDS011;50584;29.058;-110.966;2022-09-12T03:12:14;7.72;;;3.28;;
64244;SDS011;50584;29.058;-110.966;2022-09-12T03:17:15;4.13;;;1.17;;
64244;SDS011;50584;29.058;-110.966;2022-09-12T03:19:49;4.80;;;1.23;;
64244;SDS011;50584;29.058;-110.966;2022-09-12T03:22:20;5.05;;;1.40;;
64244;SDS011;50584;29.058;-110.966;2022-09-12T03:24:57;3.88;;;1.27;;
64244;SDS011;50584;29.058;-110.966;2022-09-12T03:27:34;1.95;;;1.02;;
64244;SDS011;50584;29.058;-110.966;2022-09-12T03:30:02;1.98;;;1.42;;
64244;SDS011;50584;29.058;-110.966;2022-09-12T03:35:24;2.22;;;1.20;;
64244;SDS011;50584;29.058;-110.966;2022-09-12T03:37:50;2.53;;;1.10;;
64244;SDS011;50584;29.058;-110.966;2022-09-12T03:40:17;5.20;;;1.27;;
64244;SDS011;50584;29.058;-110.966;2022-09-12T03:42:43;4.55;;;1.67;;
64244;SDS011;50584;29.058;-110.966;2022-09-12T03:45:09;3.20;;;1.23;;
64244;SDS011;50584;29.058;-110.966;2022-09-12T03:47:35;5.85;;;1.58;;
64244;SDS011;50584;29.058;-110.966;2022-09-12T03:50:01;1.20;;;1.02;;
64244;SDS011;50584;29.058;-110.966;2022-09-12T03:52:26;5.90;;;1.48;;
64244;SDS011;50584;29.058;-110.966;2022-09-12T03:54:52;4.97;;;1.23;;
64244;SDS011;50584;29.058;-110.966;2022-09-12T03:57:18;2.05;;;1.25;;
64244;SDS011;50584;29.058;-110.966;2022-09-12T03:59:44;6.55;;;1.40;;
64244;SDS011;50584;29.058;-110.966;2022-09-12T04:02:10;4.03;;;1.20;;
64244;SDS011;50584;29.058;-110.966;2022-09-12T04:04:42;2.72;;;1.30;;
64244;SDS011;50584;29.058;-110.966;2022-09-12T04:07:08;5.05;;;1.20;;
64244;SDS011;50584;29.058;-110.966;2022-09-12T04:09:34;5.47;;;1.10;;
64244;SDS011;50584;29.058;-110.966;2022-09-12T04:12:00;3.40;;;1.00;;
64244;SDS011;50584;29.058;-110.966;2022-09-12T04:14:26;2.33;;;0.77;;
64244;SDS011;50584;29.058;-110.966;2022-09-12T04:16:52;1.95;;;1.00;;
64244;SDS011;50584;29.058;-110.966;2022-09-12T04:19:18;1.98;;;1.20;;
64244;SDS011;50584;29.058;-110.966;2022-09-12T04:21:44;1.05;;;0.98;;
64244;SDS011;50584;29.058;-110.966;2022-09-12T04:24:09;3.05;;;1.20;;
64244;SDS011;50584;29.058;-110.966;2022-09-12T04:26:35;4.75;;;1.25;;
64244;SDS011;50584;29.058;-110.966;2022-09-12T04:29:01;1.42;;;1.10;;
64244;SDS011;50584;29.058;-110.966;2022-09-12T04:31:29;3.17;;;1.10;;
64244;SDS011;50584;29.058;-110.966;2022-09-12T04:33:55;6.65;;;1.27;;
64244;SDS011;50584;29.058;-110.966;2022-09-12T04:36:22;4.50;;;1.20;;
64244;SDS011;50584;29.058;-110.966;2022-09-12T04:38:48;1.83;;;1.00;;
64244;SDS011;50584;29.058;-110.966;2022-09-12T04:41:16;3.63;;;1.30;;
64244;SDS011;50584;29.058;-110.966;2022-09-12T04:43:42;1.55;;;1.02;;
64244;SDS011;50584;29.058;-110.966;2022-09-12T04:46:11;6.15;;;1.50;;
64244;SDS011;50584;29.058;-110.966;2022-09-12T04:48:37;8.35;;;1.42;;
64244;SDS011;50584;29.058;-110.966;2022-09-12T04:51:13;2.83;;;1.35;;
64244;SDS011;50584;29.058;-110.966;2022-09-12T04:53:39;5.55;;;1.42;;
64244;SDS011;50584;29.058;-110.966;2022-09-12T04:56:06;6.35;;;1.40;;
64244;SDS011;50584;29.058;-110.966;2022-09-12T04:58:32;2.88;;;1.60;;
64244;SDS011;50584;29.058;-110.966;2022-09-12T05:01:09;2.53;;;1.30;;
64244;SDS011;50584;29.058;-110.966;2022-09-12T05:03:35;3.60;;;1.27;;
64244;SDS011;50584;29.058;-110.966;2022-09-12T05:06:05;2.40;;;1.25;;
64244;SDS011;50584;29.058;-110.966;2022-09-12T05:08:32;6.18;;;1.70;;
64244;SDS011;50584;29.058;-110.966;2022-09-12T05:11:21;1.10;;;1.10;;
64244;SDS011;50584;29.058;-110.966;2022-09-12T05:13:45;5.00;;;1.02;;
64244;SDS011;50584;29.058;-110.966;2022-09-12T05:16:11;4.72;;;0.90;;
64244;SDS011;50584;29.058;-110.966;2022-09-12T05:18:39;1.38;;;1.27;;
64244;SDS011;50584;29.058;-110.966;2022-09-12T05:21:06;3.60;;;1.00;;
64244;SDS011;50584;29.058;-110.966;2022-09-12T05:23:32;3.92;;;1.10;;
64244;SDS011;50584;29.058;-110.966;2022-09-12T05:25:58;2.92;;;1.42;;
64244;SDS011;50584;29.058;-110.966;2022-09-12T05:28:27;4.15;;;1.17;;
64244;SDS011;50584;29.058;-110.966;2022-09-12T05:31:10;2.88;;;1.15;;
64244;SDS011;50584;29.058;-110.966;2022-09-12T05:33:37;1.33;;;1.00;;
64244;SDS011;50584;29.058;-110.966;2022-09-12T05:36:04;2.95;;;1.38;;
64244;SDS011;50584;29.058;-110.966;2022-09-12T05:38:32;0.90;;;0.90;;
64244;SDS011;50584;29.058;-110.966;2022-09-12T05:41:41;2.60;;;1.20;;
64244;SDS011;50584;29.058;-110.966;2022-09-12T05:43:52;3.78;;;1.10;;
64244;SDS011;50584;29.058;-110.966;2022-09-12T05:46:19;2.67;;;1.77;;
64244;SDS011;50584;29.058;-110.966;2022-09-12T05:48:45;5.22;;;1.75;;
64244;SDS011;50584;29.058;-110.966;2022-09-12T05:51:12;1.30;;;1.20;;
64244;SDS011;50584;29.058;-110.966;2022-09-12T05:53:39;3.90;;;1.30;;
64244;SDS011;50584;29.058;-110.966;2022-09-12T05:56:06;2.58;;;1.33;;
64244;SDS011;50584;29.058;-110.966;2022-09-12T05:58:33;2.08;;;1.40;;
64244;SDS011;50584;29.058;-110.966;2022-09-12T06:01:07;2.60;;;1.40;;
64244;SDS011;50584;29.058;-110.966;2022-09-12T06:03:38;1.35;;;1.30;;
64244;SDS011;50584;29.058;-110.966;2022-09-12T06:06:05;2.13;;;1.42;;
64244;SDS011;50584;29.058;-110.966;2022-09-12T06:08:31;2.75;;;1.77;;
64244;SDS011;50584;29.058;-110.966;2022-09-12T06:10:59;4.00;;;1.50;;
64244;SDS011;50584;29.058;-110.966;2022-09-12T06:13:25;1.13;;;1.02;;
64244;SDS011;50584;29.058;-110.966;2022-09-12T06:15:50;4.78;;;1.13;;
64244;SDS011;50584;29.058;-110.966;2022-09-12T06:18:16;2.47;;;1.35;;
64244;SDS011;50584;29.058;-110.966;2022-09-12T06:20:42;1.90;;;1.70;;
64244;SDS011;50584;29.058;-110.966;2022-09-12T06:23:08;4.13;;;1.55;;
64244;SDS011;50584;29.058;-110.966;2022-09-12T06:25:34;1.40;;;1.30;;
64244;SDS011;50584;29.058;-110.966;2022-09-12T06:28:03;2.78;;;1.50;;
64244;SDS011;50584;29.058;-110.966;2022-09-12T06:30:29;4.68;;;1.42;;
64244;SDS011;50584;29.058;-110.966;2022-09-12T06:32:55;2.45;;;1.50;;
64244;SDS011;50584;29.058;-110.966;2022-09-12T06:35:23;4.35;;;1.65;;
64244;SDS011;50584;29.058;-110.966;2022-09-12T06:37:49;2.20;;;1.63;;
64244;SDS011;50584;29.058;-110.966;2022-09-12T06:40:15;3.35;;;1.40;;
64244;SDS011;50584;29.058;-110.966;2022-09-12T06:42:41;3.33;;;1.40;;
64244;SDS011;50584;29.058;-110.966;2022-09-12T06:45:07;2.47;;;1.60;;
64244;SDS011;50584;29.058;-110.966;2022-09-12T06:47:33;4.80;;;1.55;;
64244;SDS011;50584;29.058;-110.966;2022-09-12T06:49:59;2.38;;;1.27;;
64244;SDS011;50584;29.058;-110.966;2022-09-12T06:52:25;3.30;;;1.50;;
64244;SDS011;50584;29.058;-110.966;2022-09-12T06:54:51;2.20;;;1.35;;
64244;SDS011;50584;29.058;-110.966;2022-09-12T06:57:16;1.95;;;1.52;;
64244;SDS011;50584;29.058;-110.966;2022-09-12T06:59:42;7.18;;;1.40;;
64244;SDS011;50584;29.058;-110.966;2022-09-12T07:02:09;1.50;;;1.40;;
64244;SDS011;50584;29.058;-110.966;2022-09-12T07:04:34;1.85;;;1.00;;
64244;SDS011;50584;29.058;-110.966;2022-09-12T07:07:01;6.43;;;1.08;;
64244;SDS011;50584;29.058;-110.966;2022-09-12T07:09:27;1.98;;;1.20;;
64244;SDS011;50584;29.058;-110.966;2022-09-12T07:11:55;4.60;;;1.30;;
64244;SDS011;50584;29.058;-110.966;2022-09-12T07:14:20;5.55;;;1.42;;
64244;SDS011;50584;29.058;-110.966;2022-09-12T07:16:46;4.15;;;1.23;;
64244;SDS011;50584;29.058;-110.966;2022-09-12T07:19:12;2.60;;;1.38;;
64244;SDS011;50584;29.058;-110.966;2022-09-12T07:21:38;2.50;;;1.30;;
64244;SDS011;50584;29.058;-110.966;2022-09-12T07:24:04;1.95;;;1.40;;
64244;SDS011;50584;29.058;-110.966;2022-09-12T07:26:30;2.22;;;1.52;;
64244;SDS011;50584;29.058;-110.966;2022-09-12T07:28:57;6.63;;;1.83;;
64244;SDS011;50584;29.058;-110.966;2022-09-12T07:31:24;1.52;;;1.40;;
64244;SDS011;50584;29.058;-110.966;2022-09-12T07:33:50;3.03;;;1.52;;
64244;SDS011;50584;29.058;-110.966;2022-09-12T07:36:17;3.78;;;1.65;;
64244;SDS011;50584;29.058;-110.966;2022-09-12T07:38:43;3.30;;;1.83;;
64244;SDS011;50584;29.058;-110.966;2022-09-12T07:43:36;4.57;;;1.83;;
64244;SDS011;50584;29.058;-110.966;2022-09-12T07:46:02;3.70;;;1.58;;
64244;SDS011;50584;29.058;-110.966;2022-09-12T07:48:28;6.15;;;1.60;;
64244;SDS011;50584;29.058;-110.966;2022-09-12T07:51:00;10.27;;;1.85;;
64244;SDS011;50584;29.058;-110.966;2022-09-12T07:53:31;3.63;;;1.70;;
64244;SDS011;50584;29.058;-110.966;2022-09-12T07:55:58;5.07;;;2.30;;
64244;SDS011;50584;29.058;-110.966;2022-09-12T07:58:24;4.40;;;1.88;;
64244;SDS011;50584;29.058;-110.966;2022-09-12T08:00:50;4.53;;;1.75;;
64244;SDS011;50584;29.058;-110.966;2022-09-12T08:03:16;2.45;;;1.40;;
64244;SDS011;50584;29.058;-110.966;2022-09-12T08:05:42;10.50;;;1.80;;
64244;SDS011;50584;29.058;-110.966;2022-09-12T08:08:08;5.93;;;1.73;;
64244;SDS011;50584;29.058;-110.966;2022-09-12T08:10:34;1.50;;;1.30;;
64244;SDS011;50584;29.058;-110.966;2022-09-12T08:13:00;3.83;;;1.30;;
64244;SDS011;50584;29.058;-110.966;2022-09-12T08:15:27;6.55;;;1.48;;
64244;SDS011;50584;29.058;-110.966;2022-09-12T08:17:53;6.82;;;1.88;;
64244;SDS011;50584;29.058;-110.966;2022-09-12T08:20:19;1.20;;;1.10;;
64244;SDS011;50584;29.058;-110.966;2022-09-12T08:22:44;1.52;;;1.27;;
64244;SDS011;50584;29.058;-110.966;2022-09-12T08:25:10;3.15;;;1.50;;
64244;SDS011;50584;29.058;-110.966;2022-09-12T08:27:36;3.22;;;1.40;;
64244;SDS011;50584;29.058;-110.966;2022-09-12T08:30:04;4.25;;;1.20;;
64244;SDS011;50584;29.058;-110.966;2022-09-12T08:32:30;5.65;;;1.20;;
64244;SDS011;50584;29.058;-110.966;2022-09-12T08:34:56;1.65;;;1.42;;
64244;SDS011;50584;29.058;-110.966;2022-09-12T08:37:22;1.65;;;1.17;;
64244;SDS011;50584;29.058;-110.966;2022-09-12T08:39:48;6.05;;;1.10;;
64244;SDS011;50584;29.058;-110.966;2022-09-12T08:42:21;1.58;;;1.10;;
64244;SDS011;50584;29.058;-110.966;2022-09-12T08:49:52;2.78;;;1.17;;
64244;SDS011;50584;29.058;-110.966;2022-09-12T08:54:47;1.63;;;0.93;;
64244;SDS011;50584;29.058;-110.966;2022-09-12T08:57:14;2.97;;;1.20;;
64244;SDS011;50584;29.058;-110.966;2022-09-12T08:59:40;3.60;;;1.27;;
64244;SDS011;50584;29.058;-110.966;2022-09-12T09:15:21;2.78;;;1.40;;
64244;SDS011;50584;29.058;-110.966;2022-09-12T09:17:51;3.03;;;1.10;;
64244;SDS011;50584;29.058;-110.966;2022-09-12T09:23:00;3.65;;;1.48;;
64244;SDS011;50584;29.058;-110.966;2022-09-12T09:27:57;2.70;;;1.58;;
64244;SDS011;50584;29.058;-110.966;2022-09-12T09:30:26;3.72;;;1.70;;
64244;SDS011;50584;29.058;-110.966;2022-09-12T09:32:54;4.88;;;1.20;;
64244;SDS011;50584;29.058;-110.966;2022-09-12T09:43:22;3.10;;;1.10;;
64244;SDS011;50584;29.058;-110.966;2022-09-12T09:45:50;6.00;;;1.65;;
64244;SDS011;50584;29.058;-110.966;2022-09-12T09:48:21;2.83;;;1.08;;
64244;SDS011;50584;29.058;-110.966;2022-09-12T09:50:49;1.73;;;1.30;;
64244;SDS011;50584;29.058;-110.966;2022-09-12T09:53:24;2.20;;;1.20;;
64244;SDS011;50584;29.058;-110.966;2022-09-12T09:55:52;2.10;;;1.10;;
64244;SDS011;50584;29.058;-110.966;2022-09-12T09:58:31;1.45;;;1.27;;
64244;SDS011;50584;29.058;-110.966;2022-09-12T10:00:57;2.47;;;1.42;;
64244;SDS011;50584;29.058;-110.966;2022-09-12T10:03:29;5.50;;;1.50;;
64244;SDS011;50584;29.058;-110.966;2022-09-12T10:05:59;2.65;;;1.50;;
64244;SDS011;50584;29.058;-110.966;2022-09-12T10:08:32;5.22;;;1.60;;
64244;SDS011;50584;29.058;-110.966;2022-09-12T10:11:08;4.22;;;2.10;;
64244;SDS011;50584;29.058;-110.966;2022-09-12T10:13:50;5.30;;;1.52;;
64244;SDS011;50584;29.058;-110.966;2022-09-12T10:16:18;1.35;;;1.25;;
64244;SDS011;50584;29.058;-110.966;2022-09-12T10:18:46;3.33;;;1.48;;
64244;SDS011;50584;29.058;-110.966;2022-09-12T10:21:24;2.72;;;1.65;;
64244;SDS011;50584;29.058;-110.966;2022-09-12T10:24:03;2.88;;;1.70;;
64244;SDS011;50584;29.058;-110.966;2022-09-12T10:26:31;5.43;;;2.58;;
64244;SDS011;50584;29.058;-110.966;2022-09-12T10:28:57;8.60;;;3.30;;
64244;SDS011;50584;29.058;-110.966;2022-09-12T10:31:28;10.60;;;4.53;;
64244;SDS011;50584;29.058;-110.966;2022-09-12T10:33:56;8.10;;;5.05;;
64244;SDS011;50584;29.058;-110.966;2022-09-12T10:36:24;10.18;;;5.20;;
64244;SDS011;50584;29.058;-110.966;2022-09-12T10:38:54;9.65;;;5.68;;
64244;SDS011;50584;29.058;-110.966;2022-09-12T10:43:46;15.90;;;5.25;;
64244;SDS011;50584;29.058;-110.966;2022-09-12T10:48:44;16.77;;;5.07;;
64244;SDS011;50584;29.058;-110.966;2022-09-12T10:53:53;8.07;;;4.38;;
64244;SDS011;50584;29.058;-110.966;2022-09-12T10:56:19;11.25;;;3.75;;
64244;SDS011;50584;29.058;-110.966;2022-09-12T11:06:17;8.85;;;3.83;;
64244;SDS011;50584;29.058;-110.966;2022-09-12T11:11:35;8.15;;;3.28;;
64244;SDS011;50584;29.058;-110.966;2022-09-12T11:14:25;7.22;;;3.58;;
64244;SDS011;50584;29.058;-110.966;2022-09-12T11:27:31;5.95;;;3.97;;
64244;SDS011;50584;29.058;-110.966;2022-09-12T11:29:47;6.05;;;3.78;;
64244;SDS011;50584;29.058;-110.966;2022-09-12T11:39:46;5.28;;;3.60;;
64244;SDS011;50584;29.058;-110.966;2022-09-12T11:42:24;4.32;;;3.10;;
64244;SDS011;50584;29.058;-110.966;2022-09-12T11:45:36;6.25;;;3.35;;
64244;SDS011;50584;29.058;-110.966;2022-09-12T11:47:44;5.07;;;2.97;;
64244;SDS011;50584;29.058;-110.966;2022-09-12T11:50:19;10.20;;;3.60;;
64244;SDS011;50584;29.058;-110.966;2022-09-12T11:52:47;8.70;;;3.20;;
64244;SDS011;50584;29.058;-110.966;2022-09-12T11:55:16;5.75;;;2.75;;
64244;SDS011;50584;29.058;-110.966;2022-09-12T11:57:43;3.08;;;2.88;;
64244;SDS011;50584;29.058;-110.966;2022-09-12T12:00:17;3.10;;;2.90;;
64244;SDS011;50584;29.058;-110.966;2022-09-12T12:02:49;3.30;;;2.85;;
64244;SDS011;50584;29.058;-110.966;2022-09-12T12:05:21;4.40;;;3.00;;
64244;SDS011;50584;29.058;-110.966;2022-09-12T12:07:58;3.15;;;2.85;;
64244;SDS011;50584;29.058;-110.966;2022-09-12T12:10:38;3.78;;;2.85;;
64244;SDS011;50584;29.058;-110.966;2022-09-12T12:13:13;3.92;;;3.30;;
64244;SDS011;50584;29.058;-110.966;2022-09-12T12:15:47;5.90;;;2.80;;
64244;SDS011;50584;29.058;-110.966;2022-09-12T12:18:19;2.75;;;2.55;;
64244;SDS011;50584;29.058;-110.966;2022-09-12T12:20:46;4.13;;;3.30;;
64244;SDS011;50584;29.058;-110.966;2022-09-12T12:25:52;4.18;;;2.70;;
64244;SDS011;50584;29.058;-110.966;2022-09-12T12:31:03;2.92;;;2.53;;
64244;SDS011;50584;29.058;-110.966;2022-09-12T12:38:31;2.75;;;2.53;;
64244;SDS011;50584;29.058;-110.966;2022-09-12T12:43:41;5.00;;;2.60;;
64244;SDS011;50584;29.058;-110.966;2022-09-12T12:46:09;3.40;;;2.40;;
64244;SDS011;50584;29.058;-110.966;2022-09-12T12:48:42;4.38;;;2.67;;
64244;SDS011;50584;29.058;-110.966;2022-09-12T12:53:48;6.75;;;2.60;;
64244;SDS011;50584;29.058;-110.966;2022-09-12T12:56:27;3.63;;;2.58;;
64244;SDS011;50584;29.058;-110.966;2022-09-12T12:59:01;8.03;;;2.20;;
64244;SDS011;50584;29.058;-110.966;2022-09-12T13:01:28;4.38;;;2.33;;
64244;SDS011;50584;29.058;-110.966;2022-09-12T13:03:56;2.72;;;2.50;;
64244;SDS011;50584;29.058;-110.966;2022-09-12T13:06:35;6.82;;;2.55;;
64244;SDS011;50584;29.058;-110.966;2022-09-12T13:09:15;3.17;;;2.67;;
64244;SDS011;50584;29.058;-110.966;2022-09-12T13:11:44;5.05;;;2.80;;
64244;SDS011;50584;29.058;-110.966;2022-09-12T13:14:32;11.50;;;3.08;;
64244;SDS011;50584;29.058;-110.966;2022-09-12T13:16:57;4.63;;;2.72;;
64244;SDS011;50584;29.058;-110.966;2022-09-12T13:19:30;6.72;;;3.85;;
64244;SDS011;50584;29.058;-110.966;2022-09-12T13:22:08;4.00;;;3.50;;
64244;SDS011;50584;29.058;-110.966;2022-09-12T13:24:43;11.30;;;7.97;;
64244;SDS011;50584;29.058;-110.966;2022-09-12T13:27:18;13.48;;;7.85;;
64244;SDS011;50584;29.058;-110.966;2022-09-12T13:29:44;32.05;;;17.17;;
64244;SDS011;50584;29.058;-110.966;2022-09-12T13:32:10;15.77;;;8.98;;
64244;SDS011;50584;29.058;-110.966;2022-09-12T13:34:40;22.83;;;10.30;;
64244;SDS011;50584;29.058;-110.966;2022-09-12T13:40:39;5.88;;;3.88;;
64244;SDS011;50584;29.058;-110.966;2022-09-12T13:42:48;12.18;;;5.50;;
64244;SDS011;50584;29.058;-110.966;2022-09-12T13:45:17;20.55;;;8.18;;
64244;SDS011;50584;29.058;-110.966;2022-09-12T13:47:44;11.95;;;6.47;;
64244;SDS011;50584;29.058;-110.966;2022-09-12T13:50:14;6.22;;;3.10;;
64244;SDS011;50584;29.058;-110.966;2022-09-12T13:52:41;4.38;;;2.55;;
64244;SDS011;50584;29.058;-110.966;2022-09-12T13:55:17;33.88;;;12.02;;
64244;SDS011;50584;29.058;-110.966;2022-09-12T13:57:54;26.60;;;12.23;;
64244;SDS011;50584;29.058;-110.966;2022-09-12T14:00:20;18.27;;;9.02;;
64244;SDS011;50584;29.058;-110.966;2022-09-12T14:02:46;15.98;;;7.20;;
64244;SDS011;50584;29.058;-110.966;2022-09-12T14:05:16;17.67;;;8.35;;
64244;SDS011;50584;29.058;-110.966;2022-09-12T14:10:20;30.80;;;15.32;;
64244;SDS011;50584;29.058;-110.966;2022-09-12T14:12:46;4.72;;;4.25;;
64244;SDS011;50584;29.058;-110.966;2022-09-12T14:15:16;11.40;;;4.95;;
64244;SDS011;50584;29.058;-110.966;2022-09-12T14:17:47;9.90;;;3.50;;
64244;SDS011;50584;29.058;-110.966;2022-09-12T14:20:16;13.48;;;5.88;;
64244;SDS011;50584;29.058;-110.966;2022-09-12T14:22:43;6.82;;;3.85;;
64244;SDS011;50584;29.058;-110.966;2022-09-12T14:25:16;7.75;;;4.13;;
64244;SDS011;50584;29.058;-110.966;2022-09-12T14:27:46;6.63;;;3.10;;
64244;SDS011;50584;29.058;-110.966;2022-09-12T14:35:31;6.60;;;3.00;;
64244;SDS011;50584;29.058;-110.966;2022-09-12T14:38:03;8.48;;;4.55;;
64244;SDS011;50584;29.058;-110.966;2022-09-12T14:40:30;5.60;;;2.65;;
64244;SDS011;50584;29.058;-110.966;2022-09-12T14:42:56;4.38;;;2.60;;
64244;SDS011;50584;29.058;-110.966;2022-09-12T14:45:27;8.80;;;2.75;;
64244;SDS011;50584;29.058;-110.966;2022-09-12T14:47:53;3.67;;;2.38;;
64244;SDS011;50584;29.058;-110.966;2022-09-12T14:50:24;5.03;;;2.40;;
64244;SDS011;50584;29.058;-110.966;2022-09-12T14:55:29;3.22;;;2.30;;
64244;SDS011;50584;29.058;-110.966;2022-09-12T14:58:15;2.47;;;2.28;;
64244;SDS011;50584;29.058;-110.966;2022-09-12T15:01:29;2.75;;;2.50;;
64244;SDS011;50584;29.058;-110.966;2022-09-12T15:06:02;5.25;;;3.33;;
64244;SDS011;50584;29.058;-110.966;2022-09-12T15:08:29;6.97;;;2.30;;
64244;SDS011;50584;29.058;-110.966;2022-09-12T15:10:55;8.32;;;2.60;;
64244;SDS011;50584;29.058;-110.966;2022-09-12T15:13:23;5.22;;;2.22;;
64244;SDS011;50584;29.058;-110.966;2022-09-12T15:15:56;4.60;;;2.13;;
64244;SDS011;50584;29.058;-110.966;2022-09-12T15:18:23;3.20;;;1.90;;
64244;SDS011;50584;29.058;-110.966;2022-09-12T15:20:51;3.85;;;2.63;;
64244;SDS011;50584;29.058;-110.966;2022-09-12T15:23:38;3.40;;;1.95;;
64244;SDS011;50584;29.058;-110.966;2022-09-12T15:26:05;6.93;;;2.35;;
64244;SDS011;50584;29.058;-110.966;2022-09-12T15:28:31;4.80;;;2.38;;
64244;SDS011;50584;29.058;-110.966;2022-09-12T15:30:59;5.60;;;2.20;;
64244;SDS011;50584;29.058;-110.966;2022-09-12T15:33:27;2.88;;;2.50;;
64244;SDS011;50584;29.058;-110.966;2022-09-12T15:35:53;4.10;;;2.58;;
64244;SDS011;50584;29.058;-110.966;2022-09-12T15:38:19;5.30;;;2.08;;
64244;SDS011;50584;29.058;-110.966;2022-09-12T15:40:48;7.38;;;2.25;;
64244;SDS011;50584;29.058;-110.966;2022-09-12T15:43:17;6.25;;;2.70;;
64244;SDS011;50584;29.058;-110.966;2022-09-12T15:45:42;11.25;;;2.65;;
64244;SDS011;50584;29.058;-110.966;2022-09-12T15:48:08;5.10;;;2.55;;
64244;SDS011;50584;29.058;-110.966;2022-09-12T15:50:34;3.55;;;2.45;;
64244;SDS011;50584;29.058;-110.966;2022-09-12T15:53:00;3.15;;;2.85;;
64244;SDS011;50584;29.058;-110.966;2022-09-12T15:55:29;5.35;;;3.30;;
64244;SDS011;50584;29.058;-110.966;2022-09-12T15:57:56;4.30;;;2.60;;
64244;SDS011;50584;29.058;-110.966;2022-09-12T16:00:23;23.10;;;3.42;;
64244;SDS011;50584;29.058;-110.966;2022-09-12T16:02:49;7.88;;;2.60;;
64244;SDS011;50584;29.058;-110.966;2022-09-12T16:05:20;8.68;;;2.90;;
64244;SDS011;50584;29.058;-110.966;2022-09-12T16:07:46;6.72;;;3.08;;
64244;SDS011;50584;29.058;-110.966;2022-09-12T16:10:17;9.82;;;3.20;;
64244;SDS011;50584;29.058;-110.966;2022-09-12T16:12:43;3.47;;;3.15;;
64244;SDS011;50584;29.058;-110.966;2022-09-12T16:15:15;7.55;;;3.17;;
64244;SDS011;50584;29.058;-110.966;2022-09-12T16:17:41;9.27;;;3.25;;
64244;SDS011;50584;29.058;-110.966;2022-09-12T16:20:08;5.25;;;3.40;;
64244;SDS011;50584;29.058;-110.966;2022-09-12T16:22:35;7.03;;;3.03;;
64244;SDS011;50584;29.058;-110.966;2022-09-12T16:25:01;7.38;;;3.28;;
64244;SDS011;50584;29.058;-110.966;2022-09-12T16:27:27;9.38;;;3.30;;
64244;SDS011;50584;29.058;-110.966;2022-09-12T16:29:52;5.38;;;3.08;;
64244;SDS011;50584;29.058;-110.966;2022-09-12T16:32:18;8.85;;;3.30;;
64244;SDS011;50584;29.058;-110.966;2022-09-12T16:34:44;8.30;;;2.85;;
64244;SDS011;50584;29.058;-110.966;2022-09-12T16:37:10;10.20;;;3.50;;
64244;SDS011;50584;29.058;-110.966;2022-09-12T16:39:36;8.18;;;2.88;;
64244;SDS011;50584;29.058;-110.966;2022-09-12T16:42:01;5.35;;;3.03;;
64244;SDS011;50584;29.058;-110.966;2022-09-12T16:44:27;3.65;;;2.80;;
64244;SDS011;50584;29.058;-110.966;2022-09-12T16:46:53;10.57;;;3.20;;
64244;SDS011;50584;29.058;-110.966;2022-09-12T16:49:19;5.43;;;2.90;;
64244;SDS011;50584;29.058;-110.966;2022-09-12T16:51:46;12.15;;;3.17;;
64244;SDS011;50584;29.058;-110.966;2022-09-12T16:54:14;10.45;;;3.38;;